Time;durP1;ratioP1;P1;durP2;ratioP2;P2;SDS_P1;SDS_P2;PMS_P1;PMS_P2;Temp;Humidity;BMP_temperature;BMP_pressure;BME280_temperature;BME280_humidity;BME280_pressure;Samples;Min_cycle;Max_cycle;Signal;HPM_P1;HPM_P2
2021/12/31 14:33:28;;;;;;;100.80;34.58;;;;;;;0.56;100.00;99226.91;1774180;78;23110;-58
2021/12/31 14:36:14;;;;;;;100.85;35.03;;;;;;;0.58;100.00;99223.87;1740283;81;21584;-57
2021/12/31 14:38:41;;;;;;;87.25;33.13;;;;;;;0.74;100.00;99229.34;1736528;80;22187;-56
2021/12/31 14:41:21;;;;;;;67.27;28.40;;;;;;;0.88;100.00;99226.61;1732902;80;21460;-56
2021/12/31 14:43:42;;;;;;;48.55;23.18;;;;;;;1.00;100.00;99229.52;1730927;80;21494;-57
2021/12/31 14:46:10;;;;;;;58.45;25.70;;;;;;;1.13;100.00;99231.10;1749594;80;27549;-55
2021/12/31 14:48:37;;;;;;;49.47;22.93;;;;;;;1.23;100.00;99234.89;1738368;80;21677;-56
2021/12/31 14:51:04;;;;;;;57.50;27.27;;;;;;;1.33;100.00;99236.48;1737701;80;21907;-56
2021/12/31 14:53:31;;;;;;;61.60;28.32;;;;;;;1.39;100.00;99227.33;1749918;80;20951;-56
2021/12/31 14:55:57;;;;;;;148.07;125.78;;;;;;;1.45;100.00;99228.58;1739118;80;20981;-56
2021/12/31 14:58:24;;;;;;;67.95;33.38;;;;;;;1.55;100.00;99229.31;1746144;80;21595;-58
2021/12/31 15:00:51;;;;;;;79.43;43.57;;;;;;;1.64;100.00;99228.31;1730395;80;21481;-56
2021/12/31 15:03:17;;;;;;;76.80;44.85;;;;;;;1.68;100.00;99223.53;1740087;80;21843;-55
2021/12/31 15:05:44;;;;;;;68.35;35.15;;;;;;;1.73;100.00;99220.42;1731605;80;21499;-56
2021/12/31 15:08:11;;;;;;;;;;;;;;;1.77;100.00;99219.94;1741550;80;21194;-56
2021/12/31 15:10:39;;;;;;;61.77;32.63;;;;;;;1.81;100.00;99227.67;1739945;80;20531;-56
2021/12/31 15:13:05;;;;;;;66.80;35.25;;;;;;;1.84;100.00;99221.13;1741751;80;21549;-55
2021/12/31 15:15:36;;;;;;;48.75;24.25;;;;;;;1.88;100.00;99227.98;1739130;80;21807;-56
2021/12/31 15:18:01;;;;;;;71.97;35.15;;;;;;;1.92;100.00;99222.31;1730452;80;21451;-56
2021/12/31 15:20:28;;;;;;;301.02;203.75;;;;;;;1.93;100.00;99224.89;1746507;80;20997;-56
2021/12/31 15:22:55;;;;;;;93.58;53.23;;;;;;;1.99;100.00;99212.27;1730419;80;21057;-56
2021/12/31 15:25:22;;;;;;;89.62;51.30;;;;;;;2.03;100.00;99211.34;1739789;80;21565;-56
2021/12/31 15:27:49;;;;;;;248.50;179.30;;;;;;;2.05;100.00;99203.55;1754786;80;21766;-56
2021/12/31 15:30:16;;;;;;;135.85;77.62;;;;;;;2.09;100.00;99206.09;1734364;80;21506;-56
2021/12/31 15:32:43;;;;;;;165.73;89.35;;;;;;;2.15;100.00;99207.73;1729987;80;21548;-57
2021/12/31 15:35:10;;;;;;;488.35;330.05;;;;;;;2.19;100.00;99211.98;1736761;80;21049;-56
2021/12/31 15:37:38;;;;;;;133.97;75.52;;;;;;;2.21;100.00;99211.52;1742123;80;20937;-56
2021/12/31 15:40:10;;;;;;;115.97;60.08;;;;;;;2.22;100.00;99210.61;1737706;80;22100;-56
2021/12/31 15:42:37;;;;;;;75.90;47.35;;;;;;;2.21;100.00;99210.67;1736076;80;21430;-55
2021/12/31 15:45:06;;;;;;;192.80;120.22;;;;;;;2.21;100.00;99208.92;1736439;80;21491;-56
2021/12/31 15:47:33;;;;;;;110.15;55.03;;;;;;;2.21;100.00;99199.84;1737036;80;21455;-57
2021/12/31 15:50:00;;;;;;;138.03;66.70;;;;;;;2.18;100.00;99201.17;1742848;80;21573;-57
2021/12/31 15:52:27;;;;;;;235.10;197.70;;;;;;;2.20;100.00;99195.97;1723766;81;21761;-56
2021/12/31 15:54:54;;;;;;;248.43;136.25;;;;;;;2.23;100.00;99203.71;1742458;80;21522;-58
2021/12/31 15:57:21;;;;;;;205.35;96.17;;;;;;;2.24;100.00;99201.52;1748479;80;20957;-57
2021/12/31 15:59:50;;;;;;;156.52;66.07;;;;;;;2.20;100.00;99202.00;1728767;80;21549;-58
2021/12/31 16:02:16;;;;;;;224.55;95.15;;;;;;;2.25;100.00;99198.05;1741046;80;20950;-57
2021/12/31 16:04:43;;;;;;;112.57;72.55;;;;;;;2.28;100.00;99186.31;1741134;80;22113;-57
2021/12/31 16:07:10;;;;;;;172.25;79.45;;;;;;;2.28;100.00;99181.12;1733703;80;21598;-57
2021/12/31 16:09:36;;;;;;;82.90;38.75;;;;;;;2.22;100.00;99174.75;1727425;80;21010;-58
2021/12/31 16:12:04;;;;;;;245.48;82.12;;;;;;;2.26;100.00;99169.50;1737583;80;21060;-57
2021/12/31 16:14:31;;;;;;;398.45;285.65;;;;;;;2.28;100.00;99169.45;1738084;79;21553;-58
2021/12/31 16:16:57;;;;;;;235.88;102.05;;;;;;;2.25;100.00;99165.18;1733533;78;21783;-59
2021/12/31 16:19:24;;;;;;;198.25;86.92;;;;;;;2.15;100.00;99158.45;1743024;80;21492;-58
2021/12/31 16:21:50;;;;;;;276.50;92.70;;;;;;;2.08;100.00;99155.08;1739652;78;21561;-58
2021/12/31 16:24:17;;;;;;;513.37;211.97;;;;;;;2.12;100.00;99157.19;1748118;80;21691;-57
2021/12/31 16:26:44;;;;;;;521.75;343.30;;;;;;;2.12;100.00;99158.03;1737915;80;21481;-57
2021/12/31 16:29:11;;;;;;;192.30;91.55;;;;;;;2.10;100.00;99155.91;1736261;80;21439;-57
2021/12/31 16:31:38;;;;;;;93.60;41.28;;;;;;;2.11;100.00;99152.45;1735730;81;21491;-56
2021/12/31 16:34:08;;;;;;;303.83;103.00;;;;;;;2.11;100.00;99152.87;1727503;80;21073;-58
2021/12/31 16:36:33;;;;;;;159.70;96.97;;;;;;;2.12;100.00;99152.84;1733652;81;21566;-58
2021/12/31 16:39:00;;;;;;;501.33;293.58;;;;;;;2.10;100.00;99149.88;1734967;82;21514;-57
2021/12/31 16:41:27;;;;;;;247.15;122.22;;;;;;;2.04;100.00;99147.39;1735017;80;22136;-57
2021/12/31 16:43:54;;;;;;;;;;;;;;;2.04;100.00;99144.34;1722339;81;20996;-55
2021/12/31 16:46:21;;;;;;;201.22;74.72;;;;;;;2.11;100.00;99149.86;1738032;81;20147;-56
2021/12/31 16:48:48;;;;;;;91.60;44.58;;;;;;;2.10;100.00;99145.53;1736377;82;21573;-56
2021/12/31 16:51:14;;;;;;;93.10;42.00;;;;;;;2.13;100.00;99143.35;1727158;80;20935;-58
2021/12/31 16:53:41;;;;;;;267.32;142.15;;;;;;;2.09;100.00;99139.07;1724615;81;21558;-60
2021/12/31 16:56:08;;;;;;;115.90;70.80;;;;;;;2.06;100.00;99138.69;1728791;82;21487;-57
2021/12/31 16:58:34;;;;;;;66.82;37.55;;;;;;;2.02;100.00;99133.15;1717094;81;21563;-57
2021/12/31 17:01:00;;;;;;;55.38;30.82;;;;;;;1.97;100.00;99141.88;1728593;82;21533;-56
2021/12/31 17:03:28;;;;;;;66.75;35.17;;;;;;;1.94;100.00;99134.56;1721162;81;21416;-59
2021/12/31 17:05:54;;;;;;;48.52;28.52;;;;;;;1.97;100.00;99129.77;1726841;80;22197;-57
2021/12/31 17:08:21;;;;;;;56.88;32.05;;;;;;;2.02;100.00;99134.89;1730975;80;21570;-58
2021/12/31 17:10:48;;;;;;;73.97;49.65;;;;;;;2.04;100.00;99130.53;1722925;81;21081;-59
2021/12/31 17:13:16;;;;;;;181.93;109.83;;;;;;;1.98;100.00;99127.60;1731876;80;20991;-68
2021/12/31 17:15:45;;;;;;;57.90;33.02;;;;;;;1.97;100.00;99123.73;1736531;80;21574;-57
2021/12/31 17:18:13;;;;;;;78.02;42.73;;;;;;;1.99;100.00;99118.08;1745379;80;21852;-57
2021/12/31 17:20:41;;;;;;;77.72;43.33;;;;;;;1.98;100.00;99109.45;1722409;80;21911;-59
2021/12/31 17:23:08;;;;;;;48.05;29.30;;;;;;;1.97;100.00;99102.53;1724681;82;21558;-58
2021/12/31 17:25:36;;;;;;;42.43;24.65;;;;;;;1.95;100.00;99098.66;1725151;81;20978;-57
2021/12/31 17:28:03;;;;;;;43.15;26.20;;;;;;;1.90;100.00;99100.50;1735833;80;20999;-58
2021/12/31 17:30:31;;;;;;;88.37;58.10;;;;;;;1.89;100.00;99097.48;1736910;81;24126;-58
2021/12/31 17:32:57;;;;;;;52.73;29.42;;;;;;;1.83;100.00;99088.93;1722066;81;25752;-57
2021/12/31 17:35:26;;;;;;;46.15;26.02;;;;;;;1.82;100.00;99084.20;1730875;80;21490;-58
2021/12/31 17:37:52;;;;;;;39.55;23.47;;;;;;;1.83;100.00;99080.73;1742717;80;21494;-57
2021/12/31 17:40:18;;;;;;;36.88;23.35;;;;;;;1.87;100.00;99081.09;1746857;80;20934;-59
2021/12/31 17:42:46;;;;;;;35.55;21.23;;;;;;;1.90;100.00;99086.66;1736590;80;21727;-58
2021/12/31 17:45:13;;;;;;;46.77;27.98;;;;;;;1.91;100.00;99079.31;1737378;80;21415;-58
2021/12/31 17:47:39;;;;;;;65.10;37.05;;;;;;;1.93;100.00;99088.77;1756055;80;21085;-58
2021/12/31 17:50:07;;;;;;;42.00;23.50;;;;;;;1.94;100.00;99079.23;1737569;80;21515;-58
2021/12/31 17:52:34;;;;;;;38.33;21.40;;;;;;;1.94;100.00;99088.31;1741355;80;21545;-57
2021/12/31 17:55:01;;;;;;;39.53;20.80;;;;;;;1.93;100.00;99085.33;1733077;80;22133;-57
2021/12/31 17:57:28;;;;;;;34.50;20.13;;;;;;;1.91;100.00;99081.45;1741350;80;21427;-57
2021/12/31 17:59:55;;;;;;;35.65;20.45;;;;;;;1.89;100.00;99081.92;1740692;80;21621;-57
2021/12/31 18:02:21;;;;;;;36.28;20.70;;;;;;;1.89;100.00;99074.59;1744185;80;21516;-56
2021/12/31 18:04:48;;;;;;;35.75;20.72;;;;;;;1.83;100.00;99071.66;1726508;80;21562;-56
2021/12/31 18:07:16;;;;;;;;;;;;;;;1.82;100.00;99071.69;1736446;80;22102;-56
2021/12/31 18:09:43;;;;;;;37.08;19.98;;;;;;;1.85;100.00;99071.64;1735173;80;20418;-57
2021/12/31 18:12:10;;;;;;;40.58;22.90;;;;;;;1.83;100.00;99071.66;1734684;81;21616;-57
2021/12/31 18:14:38;;;;;;;37.67;22.37;;;;;;;1.81;100.00;99064.77;1739578;80;21422;-57
2021/12/31 18:17:05;;;;;;;36.35;21.07;;;;;;;1.80;100.00;99063.92;1730990;80;21053;-57
2021/12/31 18:19:33;;;;;;;39.13;21.62;;;;;;;1.81;100.00;99050.09;1733733;80;21018;-59
2021/12/31 18:22:00;;;;;;;38.23;20.73;;;;;;;1.85;100.00;99047.86;1733321;81;21552;-58
2021/12/31 18:24:29;;;;;;;30.43;18.77;;;;;;;1.90;100.00;99037.40;1726670;80;21474;-57
2021/12/31 18:26:56;;;;;;;40.35;24.60;;;;;;;1.95;100.00;99033.84;1730570;80;21443;-57
2021/12/31 18:29:22;;;;;;;34.67;19.27;;;;;;;2.00;100.00;99019.94;1740892;80;21437;-58
2021/12/31 18:31:49;;;;;;;30.90;19.80;;;;;;;2.03;100.00;99023.78;1736985;80;21863;-57
2021/12/31 18:34:16;;;;;;;32.80;20.30;;;;;;;2.02;100.00;99027.28;1733116;80;21544;-57
2021/12/31 18:36:43;;;;;;;31.67;19.30;;;;;;;1.97;100.00;99027.34;1741318;82;22285;-57
2021/12/31 18:39:09;;;;;;;32.00;19.10;;;;;;;1.95;100.00;99021.33;1741217;80;20963;-58
2021/12/31 18:41:37;;;;;;;31.75;19.17;;;;;;;1.95;100.00;99024.77;1726013;80;27237;-58
2021/12/31 18:44:06;;;;;;;28.77;19.20;;;;;;;1.95;100.00;99018.73;1738477;80;22167;-60
2021/12/31 18:46:40;;;;;;;27.30;17.37;;;;;;;1.94;100.00;99016.59;1726713;82;21529;-57
2021/12/31 18:49:15;;;;;;;28.57;18.60;;;;;;;1.95;100.00;99018.73;1734365;80;21586;-57
2021/12/31 18:51:32;;;;;;;29.80;19.23;;;;;;;1.95;100.00;99010.95;1726440;80;21495;-56
2021/12/31 18:53:59;;;;;;;28.07;16.93;;;;;;;1.92;100.00;99001.51;1722661;80;21510;-57
2021/12/31 18:56:26;;;;;;;28.52;19.35;;;;;;;1.95;100.00;99001.44;1721981;80;22178;-58
2021/12/31 18:58:55;;;;;;;27.93;17.60;;;;;;;1.97;100.00;98995.37;1735581;80;21423;-57
2021/12/31 19:01:22;;;;;;;23.00;15.93;;;;;;;1.97;100.00;98993.64;1725497;82;21439;-58
2021/12/31 19:03:49;;;;;;;23.62;15.25;;;;;;;1.99;100.00;98986.68;1736656;80;21534;-58
2021/12/31 19:06:15;;;;;;;24.32;16.40;;;;;;;2.02;100.00;98980.60;1744087;80;21712;-58
2021/12/31 19:08:42;;;;;;;19.37;13.85;;;;;;;2.02;100.00;98978.86;1717995;80;21902;-58
2021/12/31 19:11:09;;;;;;;18.48;12.73;;;;;;;2.03;100.00;98983.14;1727854;80;21585;-57
2021/12/31 19:13:35;;;;;;;19.42;12.82;;;;;;;2.07;100.00;98974.45;1736138;80;21447;-55
2021/12/31 19:16:03;;;;;;;19.62;12.78;;;;;;;2.08;100.00;98967.52;1739277;80;21490;-58
2021/12/31 19:18:30;;;;;;;17.05;11.20;;;;;;;2.06;100.00;98967.98;1731512;80;21594;-56
2021/12/31 19:20:58;;;;;;;16.15;10.60;;;;;;;2.05;100.00;98968.85;1733270;80;22104;-58
2021/12/31 19:23:26;;;;;;;12.13;10.03;;;;;;;2.04;100.00;98975.78;1729612;80;21416;-59
2021/12/31 19:25:54;;;;;;;14.83;10.90;;;;;;;2.00;100.00;98963.77;1735687;80;21523;-57
2021/12/31 19:28:21;;;;;;;14.18;10.13;;;;;;;2.02;100.00;98959.86;1721054;80;21577;-58
2021/12/31 19:30:47;;;;;;;13.57;10.70;;;;;;;2.06;100.00;98958.91;1738698;80;21532;-58
2021/12/31 19:33:14;;;;;;;12.73;10.13;;;;;;;2.04;100.00;98958.09;1722947;80;22158;-57
2021/12/31 19:35:42;;;;;;;12.90;9.28;;;;;;;2.04;100.00;98955.05;1726224;81;21085;-56
2021/12/31 19:38:09;;;;;;;13.05;9.80;;;;;;;2.02;100.00;98956.81;1733496;80;21486;-57
2021/12/31 19:40:36;;;;;;;14.65;10.28;;;;;;;2.02;100.00;98949.03;1726364;80;21455;-59
2021/12/31 19:43:03;;;;;;;12.50;9.28;;;;;;;2.02;100.00;98945.14;1729718;80;21535;-57
2021/12/31 19:45:34;;;;;;;11.63;8.38;;;;;;;2.03;100.00;98948.58;1729022;80;21570;-58
2021/12/31 19:48:04;;;;;;;10.98;8.20;;;;;;;2.02;100.00;98943.84;1717068;81;21474;-59
2021/12/31 19:50:31;;;;;;;8.65;7.22;;;;;;;2.07;100.00;98941.16;1725666;80;21530;-56
2021/12/31 19:52:58;;;;;;;9.98;8.20;;;;;;;2.09;100.00;98940.26;1720957;80;21424;-56
2021/12/31 19:55:25;;;;;;;8.13;6.67;;;;;;;2.11;100.00;98932.42;1734907;80;21396;-58
2021/12/31 19:57:52;;;;;;;7.87;6.33;;;;;;;2.10;100.00;98928.14;1726548;79;22127;-57
2021/12/31 20:00:19;;;;;;;8.08;7.05;;;;;;;2.12;100.00;98925.06;1720609;81;21480;-56
2021/12/31 20:02:52;;;;;;;8.20;7.25;;;;;;;2.13;100.00;98928.94;1676206;83;21525;-58
2021/12/31 20:05:19;;;;;;;8.20;6.53;;;;;;;2.18;100.00;98920.20;1693021;83;21539;-57
2021/12/31 20:07:46;;;;;;;7.90;6.50;;;;;;;2.25;100.00;98916.59;1680545;83;21516;-57
2021/12/31 20:10:16;;;;;;;8.10;7.20;;;;;;;2.28;100.00;98916.52;1689062;82;22027;-59
2021/12/31 20:12:47;;;;;;;9.33;8.33;;;;;;;2.26;100.00;98911.80;1687402;84;21581;-57
2021/12/31 20:15:14;;;;;;;8.50;6.78;;;;;;;2.22;100.00;98907.58;1719887;80;21535;-56
2021/12/31 20:17:42;;;;;;;9.15;6.15;;;;;;;2.19;100.00;98910.25;1720374;81;21518;-57
2021/12/31 20:20:11;;;;;;;6.92;6.22;;;;;;;2.19;100.00;98903.77;1685411;83;21530;-57
2021/12/31 20:22:40;;;;;;;7.78;6.83;;;;;;;2.22;100.00;98903.69;1674727;83;21425;-58
2021/12/31 20:25:09;;;;;;;7.87;7.00;;;;;;;2.25;100.00;98903.18;1703622;82;21723;-58
2021/12/31 20:27:36;;;;;;;6.55;5.87;;;;;;;2.25;100.00;98902.33;1692890;82;21456;-59
2021/12/31 20:30:06;;;;;;;7.17;6.47;;;;;;;2.26;100.00;98904.91;1682045;82;21471;-58
2021/12/31 20:32:33;;;;;;;7.83;6.95;;;;;;;2.27;100.00;98902.70;1676624;82;21590;-58
2021/12/31 20:35:00;;;;;;;6.78;6.15;;;;;;;2.28;100.00;98900.53;1692722;82;21865;-57
2021/12/31 20:37:26;;;;;;;6.55;5.87;;;;;;;2.29;100.00;98895.73;1697746;82;21530;-59
2021/12/31 20:39:55;;;;;;;7.50;6.37;;;;;;;2.31;100.00;98896.55;1728680;80;21512;-58
2021/12/31 20:42:22;;;;;;;7.70;6.90;;;;;;;2.37;100.00;98894.73;1733912;80;21559;-59
2021/12/31 20:44:48;;;;;;;7.40;6.65;;;;;;;2.34;100.00;98888.72;1737059;80;21558;-59
2021/12/31 20:47:18;;;;;;;7.17;6.20;;;;;;;2.29;100.00;98887.95;1700916;82;21786;-57
2021/12/31 20:49:45;;;;;;;6.87;6.17;;;;;;;2.29;100.00;98880.17;1733606;80;21606;-58
2021/12/31 20:52:13;;;;;;;;;;;;;;;2.32;100.00;98877.98;1737162;80;21484;-58
2021/12/31 20:54:40;;;;;;;6.80;5.60;;;;;;;2.33;100.00;98875.77;1729911;80;20484;-59
2021/12/31 20:57:07;;;;;;;7.28;5.90;;;;;;;2.33;100.00;98870.14;1722701;82;21553;-57
2021/12/31 20:59:34;;;;;;;6.78;5.90;;;;;;;2.31;100.00;98868.47;1735306;80;21804;-58
2021/12/31 21:02:01;;;;;;;7.40;6.13;;;;;;;2.28;100.00;98868.11;1739107;80;21593;-59
2021/12/31 21:04:28;;;;;;;6.78;5.40;;;;;;;2.24;100.00;98865.17;1686715;82;21120;-58
2021/12/31 21:06:56;;;;;;;6.83;6.12;;;;;;;2.30;100.00;98862.44;1699676;82;21501;-59
2021/12/31 21:09:24;;;;;;;6.90;5.90;;;;;;;2.31;100.00;98866.72;1705792;80;21505;-60
2021/12/31 21:11:52;;;;;;;7.15;6.45;;;;;;;2.32;100.00;98856.77;1688339;82;21796;-60
2021/12/31 21:14:19;;;;;;;7.90;6.08;;;;;;;2.32;100.00;98849.44;1725286;80;21878;-60
2021/12/31 21:16:46;;;;;;;6.15;5.55;;;;;;;2.25;100.00;98842.22;1699912;82;21577;-60
2021/12/31 21:19:13;;;;;;;7.85;6.83;;;;;;;2.26;100.00;98841.34;1728448;80;21557;-58
2021/12/31 21:21:40;;;;;;;6.20;5.40;;;;;;;2.28;100.00;98843.88;1735383;80;20958;-59
2021/12/31 21:24:07;;;;;;;5.87;5.27;;;;;;;2.29;100.00;98839.96;1727691;82;21850;-59
2021/12/31 21:26:35;;;;;;;7.35;6.33;;;;;;;2.30;100.00;98834.36;1733895;80;21399;-58
2021/12/31 21:29:03;;;;;;;7.40;5.58;;;;;;;2.26;100.00;98830.09;1700491;82;21549;-59
2021/12/31 21:31:32;;;;;;;7.30;6.22;;;;;;;2.27;100.00;98822.28;1687719;82;21524;-58
2021/12/31 21:33:59;;;;;;;7.45;6.08;;;;;;;2.31;100.00;98811.40;1666827;83;21648;-58
2021/12/31 21:36:26;;;;;;;7.60;5.90;;;;;;;2.36;100.00;98808.27;1693651;82;21840;-58
2021/12/31 21:38:53;;;;;;;6.35;5.75;;;;;;;2.36;100.00;98804.37;1701904;82;21002;-58
2021/12/31 21:41:21;;;;;;;6.92;5.92;;;;;;;2.30;100.00;98794.99;1675094;82;21594;-59
2021/12/31 21:43:47;;;;;;;5.72;5.17;;;;;;;2.26;100.00;98794.66;1733603;80;21767;-60
2021/12/31 21:46:15;;;;;;;6.20;5.17;;;;;;;2.31;100.00;98783.70;1711491;81;21535;-61
2021/12/31 21:48:42;;;;;;;6.45;5.22;;;;;;;2.40;100.00;98783.95;1709822;82;21786;-59
2021/12/31 21:51:10;;;;;;;7.67;6.17;;;;;;;2.44;100.00;98786.88;1730421;80;21009;-58
2021/12/31 21:53:37;;;;;;;7.60;5.33;;;;;;;2.36;100.00;98769.80;1724065;80;21574;-59
2021/12/31 21:56:05;;;;;;;6.80;6.08;;;;;;;2.36;100.00;98769.80;1678742;83;21554;-58
2021/12/31 21:58:33;;;;;;;7.25;5.58;;;;;;;2.44;100.00;98772.61;1701900;83;21536;-59
2021/12/31 22:01:01;;;;;;;;;;;;;;;2.48;100.00;98763.01;1684664;83;21970;-59
2021/12/31 22:03:29;;;;;;;7.92;6.55;;;;;;;2.45;100.00;98756.58;1684173;84;20435;-59
2021/12/31 22:05:55;;;;;;;7.53;6.60;;;;;;;2.36;100.00;98756.38;1677045;83;21534;-60
2021/12/31 22:08:22;;;;;;;8.40;6.83;;;;;;;2.37;100.00;98758.06;1679046;83;21595;-59
2021/12/31 22:10:49;;;;;;;8.03;6.83;;;;;;;2.45;100.00;98753.98;1683263;83;21019;-59
2021/12/31 22:13:16;;;;;;;13.20;7.40;;;;;;;2.52;100.00;98759.02;1680032;83;21889;-58
2021/12/31 22:15:42;;;;;;;12.65;7.42;;;;;;;2.49;100.00;98753.89;1681226;83;21515;-58
2021/12/31 22:18:09;;;;;;;7.40;6.50;;;;;;;2.36;100.00;98744.70;1692212;83;21511;-57
2021/12/31 22:20:36;;;;;;;7.93;6.70;;;;;;;2.36;100.00;98744.70;1689569;83;21582;-57
2021/12/31 22:23:04;;;;;;;7.62;5.87;;;;;;;2.43;100.00;98751.87;1676935;83;21645;-57
2021/12/31 22:25:32;;;;;;;7.50;5.65;;;;;;;2.42;100.00;98742.41;1680174;83;21862;-57
2021/12/31 22:27:58;;;;;;;6.92;6.05;;;;;;;2.41;100.00;98743.28;1696262;82;21431;-56
2021/12/31 22:30:25;;;;;;;7.50;5.90;;;;;;;2.36;100.00;98743.41;1696501;82;21551;-59
2021/12/31 22:32:53;;;;;;;7.55;5.83;;;;;;;2.35;100.00;98740.39;1694523;83;21502;-58
2021/12/31 22:35:19;;;;;;;7.97;6.65;;;;;;;2.41;100.00;98739.39;1686926;82;21472;-58
2021/12/31 22:37:49;;;;;;;9.88;7.15;;;;;;;2.45;100.00;98741.89;1667342;84;21622;-59
2021/12/31 22:40:16;;;;;;;8.50;6.97;;;;;;;2.42;100.00;98733.33;1682678;82;21422;-58
2021/12/31 22:42:45;;;;;;;7.62;6.90;;;;;;;2.37;100.00;98728.69;1679928;82;21480;-58
2021/12/31 22:45:12;;;;;;;7.20;6.42;;;;;;;2.36;100.00;98723.11;1684903;82;21519;-60
2021/12/31 22:47:40;;;;;;;;;;;;;;;2.41;100.00;98719.52;1691872;83;21552;-57
2021/12/31 22:50:09;;;;;;;8.13;6.83;;;;;;;2.42;100.00;98714.71;1684355;82;22090;-57
2021/12/31 22:52:37;;;;;;;6.40;5.75;;;;;;;2.37;100.00;98724.34;1687242;82;21760;-57
2021/12/31 22:55:06;;;;;;;7.15;6.20;;;;;;;2.34;100.00;98722.69;1690981;82;21062;-56
2021/12/31 22:57:34;;;;;;;7.97;6.72;;;;;;;2.39;100.00;98709.59;1675532;83;21691;-57
2021/12/31 23:00:09;;;;;;;8.83;7.42;;;;;;;2.47;100.00;98708.13;1682216;83;21565;-57
2021/12/31 23:02:37;;;;;;;8.60;7.75;;;;;;;2.49;100.00;98705.89;1690548;82;21408;-58
2021/12/31 23:05:06;;;;;;;10.30;7.90;;;;;;;2.46;100.00;98704.66;1681140;82;21555;-58
2021/12/31 23:07:33;;;;;;;7.75;7.05;;;;;;;2.47;100.00;98697.30;1683784;82;21868;-56
2021/12/31 23:10:00;;;;;;;8.55;7.50;;;;;;;2.54;100.00;98695.38;1686967;82;21463;-58
2021/12/31 23:12:27;;;;;;;9.65;7.85;;;;;;;2.57;100.00;98689.28;1687277;82;21484;-59
2021/12/31 23:14:56;;;;;;;8.25;7.45;;;;;;;2.53;100.00;98688.05;1690314;82;21671;-59
